Terminal Aerodrome Forecast
Issued by NWS

Home | Current Version | Previous Version | Graphics & Text | Print | Product List | Glossary On
Versions: 1 2 3 4 5 6 7 8 9 10 11 12 13 14 15 16 17 18 19 20 21 22
000
FTUS43 KBIS 231100 RRA
TAFDIK
TAF
KDIK 231141Z 2312/2412 29026G35KT P6SM BKN025 OVC035
     FM231500 30026G35KT 6SM -SN BLSN BKN020 OVC030
     FM231800 31028G38KT 3SM -SN BLSN OVC012
     FM240100 31017KT P6SM OVC020=

USA.gov is the U.S. government's official web portal to all federal, state and local government web resources and services.